Else — D5BH8 — position and weather

sailwx.info

Track history (hours):
 
Tides and Currents Weather Stations Pressure Air Temp Water Temp Dewpoint Dewpoint Depression Visibility Wind Speed Wind Dir Waves Ship Positions

Else

Last reported at 2018-May-11 19:04 UTC. Time now 2018-May-28 03:15 UTC.
Position N 35°58' W 005°35'.
Warning: this ship's position is 16 days out of date.

Length 292 m; draft 8.9 m.

Type: Cargo ship. MMSI: 636092384.

Date/timePositionNaut miles runAvg speedWind from/ knotsBaromVisibWave heightAir tempDewpointWater temp
2018-May-11 19:04N 35°58' W 005°35'110.8
2018-May-11 18:59N 35°58' W 005°34'510.6
2018-May-11 18:30N 35°59' W 005°28'510.0
2018-May-11 18:01N 36°01' W 005°22'510.0
2018-May-11 17:31N 36°02' W 005°16'  
2018-May-08 15:52N 36°51' E 013°18'3112.3
2018-May-08 13:22N 36°39' E 013°53'1112.4
2018-May-08 12:27N 36°35' E 014°06'1012.2
2018-May-08 11:40N 36°31' E 014°18'212.0
2018-May-08 11:28N 36°31' E 014°20'612.1
2018-May-08 10:59N 36°29' E 014°27'612.1
2018-May-08 10:30N 36°27' E 014°34'1411.5
2018-May-08 09:17N 36°26' E 014°51'311.1
2018-May-08 08:58N 36°27' E 014°56'510.9
2018-May-08 08:30N 36°27' E 015°02'510.4
2018-May-08 07:59N 36°26' E 015°09'510.6
2018-May-08 07:30N 36°26' E 015°15'43911.4
2018-May-06 16:53N 37°44' E 024°16'713.6
2018-May-06 16:22N 37°49' E 024°23'15112.7
2018-May-06 04:27N 40°00' E 025°58'  
Track history (hours):
 
Tides and Currents Weather Stations Pressure Air Temp Water Temp Dewpoint Dewpoint Depression Visibility Wind Speed Wind Dir Waves Ship Positions

Else

Last reported at 2018-May-11 19:04 UTC. Time now 2018-May-28 03:15 UTC.
Position N 35°58' W 005°35'.
Warning: this ship's position is 16 days out of date.

Length 292 m; draft 8.9 m.

Type: Cargo ship. MMSI: 636092384.

Date/timePositionNaut miles runAvg speedWind from/ knotsBaromVisibWave heightAir tempDewpointWater temp
2018-May-11 19:04N 35°58' W 005°35'110.8
2018-May-11 18:59N 35°58' W 005°34'510.6
2018-May-11 18:30N 35°59' W 005°28'510.0
2018-May-11 18:01N 36°01' W 005°22'510.0
2018-May-11 17:31N 36°02' W 005°16'  
2018-May-08 15:52N 36°51' E 013°18'3112.3
2018-May-08 13:22N 36°39' E 013°53'1112.4
2018-May-08 12:27N 36°35' E 014°06'1012.2
2018-May-08 11:40N 36°31' E 014°18'212.0
2018-May-08 11:28N 36°31' E 014°20'612.1
2018-May-08 10:59N 36°29' E 014°27'612.1
2018-May-08 10:30N 36°27' E 014°34'1411.5
2018-May-08 09:17N 36°26' E 014°51'311.1
2018-May-08 08:58N 36°27' E 014°56'510.9
2018-May-08 08:30N 36°27' E 015°02'510.4
2018-May-08 07:59N 36°26' E 015°09'510.6
2018-May-08 07:30N 36°26' E 015°15'43911.4
2018-May-06 16:53N 37°44' E 024°16'713.6
2018-May-06 16:22N 37°49' E 024°23'15112.7
2018-May-06 04:27N 40°00' E 025°58'  

Dump ship's entire track history